createdAt,value
2019-03-23T00:01:01.918Z,68.80
2019-03-23T00:03:46.579Z,70.00
2019-03-23T00:06:31.488Z,70.30
2019-03-23T00:09:15.841Z,70.50
2019-03-23T00:12:00.925Z,70.80
2019-03-23T00:14:46.161Z,71.00
2019-03-23T00:17:31.760Z,70.60
2019-03-23T00:20:16.409Z,69.60
2019-03-23T00:23:01.464Z,68.90
2019-03-23T00:25:45.796Z,68.80
2019-03-23T00:28:39.543Z,68.80
2019-03-23T00:31:24.553Z,68.80
2019-03-23T00:34:18.259Z,68.50
2019-03-23T00:37:03.773Z,68.70
2019-03-23T00:39:57.544Z,67.70
2019-03-23T00:42:42.142Z,67.40
2019-03-23T00:45:26.924Z,67.90
2019-03-23T00:48:11.701Z,69.10
2019-03-23T00:50:57.065Z,69.90
2019-03-23T00:53:50.749Z,70.50
2019-03-23T00:56:35.768Z,70.80
2019-03-23T00:59:29.713Z,71.20
2019-03-23T01:02:14.700Z,71.30
2019-03-23T01:05:08.808Z,71.70
2019-03-23T01:08:02.321Z,72.40
2019-03-23T01:10:47.585Z,72.50
2019-03-23T01:13:32.434Z,72.90
2019-03-23T01:16:17.368Z,73.00
2019-03-23T01:19:11.524Z,73.20
2019-03-23T01:22:05.633Z,73.40
2019-03-23T01:24:51.536Z,73.50
2019-03-23T01:27:45.875Z,73.50
2019-03-23T01:30:30.280Z,73.50
2019-03-23T01:33:15.489Z,73.50
2019-03-23T01:36:00.138Z,73.40
2019-03-23T01:38:44.774Z,73.30
2019-03-23T01:41:29.437Z,73.00
2019-03-23T01:44:14.468Z,72.80
2019-03-23T01:46:59.600Z,72.90
2019-03-23T01:49:44.752Z,73.10
2019-03-23T01:52:38.276Z,73.20
2019-03-23T01:55:23.848Z,72.80
2019-03-23T01:58:17.180Z,72.30
2019-03-23T02:01:02.136Z,72.00
2019-03-23T02:03:47.279Z,71.30
2019-03-23T02:06:46.820Z,70.80
2019-03-23T02:09:31.488Z,71.20
2019-03-23T02:12:16.151Z,71.70
2019-03-23T02:15:01.084Z,72.00
2019-03-23T02:17:45.647Z,72.30
2019-03-23T02:20:30.528Z,72.00
2019-03-23T02:23:15.512Z,72.20
2019-03-23T02:26:00.275Z,72.90
2019-03-23T02:28:45.256Z,73.40
2019-03-23T02:31:30.012Z,72.90
2019-03-23T02:34:14.506Z,72.40
2019-03-23T02:36:58.876Z,72.20
2019-03-23T02:39:52.233Z,72.40
2019-03-23T02:42:36.887Z,72.50
2019-03-23T02:45:22.039Z,72.50
2019-03-23T02:48:06.434Z,73.30
2019-03-23T02:50:50.944Z,73.40
2019-03-23T02:53:35.592Z,73.50
2019-03-23T02:56:28.781Z,74.30
2019-03-23T02:59:13.584Z,74.70
2019-03-23T03:01:58.139Z,75.60
2019-03-23T03:04:43.248Z,76.00
2019-03-23T03:07:40.635Z,77.30
2019-03-23T03:10:14.217Z,76.50
2019-03-23T03:12:59.034Z,76.40
2019-03-23T03:15:44.049Z,76.40
2019-03-23T03:18:28.545Z,77.10
2019-03-23T03:21:13.314Z,77.40
2019-03-23T03:23:57.972Z,77.90
2019-03-23T03:26:42.360Z,78.40
2019-03-23T03:29:35.464Z,78.70
2019-03-23T03:32:20.342Z,79.00
2019-03-23T03:35:04.550Z,79.00
2019-03-23T03:37:57.680Z,79.20
2019-03-23T03:40:42.441Z,79.40
2019-03-23T03:43:27.181Z,80.10
2019-03-23T03:46:21.686Z,80.70
2019-03-23T03:49:12.429Z,81.20
2019-03-23T03:51:52.996Z,82.00
2019-03-23T03:54:37.576Z,81.90
2019-03-23T03:57:22.315Z,81.50
2019-03-23T04:00:06.722Z,81.40
2019-03-23T04:02:51.426Z,80.50
2019-03-23T04:05:36.264Z,80.00
2019-03-23T04:08:20.756Z,79.10
2019-03-23T04:11:06.672Z,78.80
2019-03-23T04:13:51.388Z,78.70
2019-03-23T04:16:35.981Z,78.90
2019-03-23T04:19:21.219Z,79.10
2019-03-23T04:22:14.888Z,79.50
2019-03-23T04:24:59.553Z,79.70
2019-03-23T04:27:44.325Z,79.80
2019-03-23T04:30:28.629Z,79.60
2019-03-23T04:33:13.448Z,78.60
2019-03-23T04:35:57.573Z,78.00
2019-03-23T04:38:43.136Z,77.90
2019-03-23T04:41:27.512Z,77.70
2019-03-23T04:44:21.167Z,77.70
2019-03-23T04:47:06.053Z,78.40
2019-03-23T04:49:50.755Z,78.50
2019-03-23T04:52:36.163Z,79.00
2019-03-23T04:55:29.739Z,79.30
2019-03-23T04:58:14.536Z,79.30
2019-03-23T05:00:59.289Z,79.00
2019-03-23T05:03:43.684Z,78.70
2019-03-23T05:06:28.351Z,79.00
2019-03-23T05:09:12.707Z,79.00
2019-03-23T05:11:58.203Z,79.00
2019-03-23T05:14:42.803Z,79.20
2019-03-23T05:17:27.567Z,79.30
2019-03-23T05:20:12.224Z,79.40
2019-03-23T05:22:56.700Z,79.40
2019-03-23T05:25:50.383Z,79.20
2019-03-23T05:28:34.895Z,78.90
2019-03-23T05:31:19.827Z,79.30
2019-03-23T05:34:04.324Z,80.70
2019-03-23T05:36:48.526Z,81.00
2019-03-23T05:39:41.808Z,81.20
2019-03-23T05:42:26.751Z,80.70
2019-03-23T05:45:11.702Z,80.40
2019-03-23T05:47:56.245Z,80.50
2019-03-23T05:50:42.092Z,80.60
2019-03-23T05:53:26.833Z,80.50
2019-03-23T05:56:11.618Z,80.50
2019-03-23T05:58:56.295Z,80.40
2019-03-23T06:01:49.740Z,80.40
2019-03-23T06:04:34.472Z,80.50
2019-03-23T06:07:19.247Z,80.60
2019-03-23T06:10:03.561Z,80.30
2019-03-23T06:12:48.040Z,80.10
2019-03-23T06:15:41.303Z,79.80
2019-03-23T06:18:26.132Z,80.00
2019-03-23T06:21:10.793Z,80.10
2019-03-23T06:23:55.409Z,79.70
2019-03-23T06:26:40.099Z,79.80
2019-03-23T06:29:25.192Z,79.30
2019-03-23T06:32:09.924Z,79.10
2019-03-23T06:34:54.427Z,79.10
2019-03-23T06:37:38.772Z,78.40
2019-03-23T06:40:32.247Z,78.10
2019-03-23T06:43:16.736Z,77.40
2019-03-23T06:46:01.339Z,77.30
2019-03-23T06:48:46.536Z,77.10
2019-03-23T06:51:31.548Z,77.10
2019-03-23T06:54:16.102Z,77.00
2019-03-23T06:57:00.709Z,76.60
2019-03-23T07:00:03.171Z,76.40
2019-03-23T07:02:47.833Z,75.90
2019-03-23T07:05:32.672Z,75.30
2019-03-23T07:08:17.269Z,74.60
2019-03-23T07:11:02.600Z,74.20
2019-03-23T07:13:47.781Z,74.00
2019-03-23T07:16:41.259Z,73.10
2019-03-23T07:19:26.136Z,72.30
2019-03-23T07:22:10.375Z,72.10
2019-03-23T07:24:54.909Z,72.00
2019-03-23T07:27:40.494Z,71.60
2019-03-23T07:30:25.608Z,71.20
2019-03-23T07:33:09.984Z,70.60
2019-03-23T07:35:54.679Z,69.90
2019-03-23T07:38:38.867Z,69.40
2019-03-23T07:41:32.589Z,68.90
2019-03-23T07:44:26.620Z,68.70
2019-03-23T07:47:11.686Z,68.30
2019-03-23T07:50:05.137Z,68.20
2019-03-23T07:52:50.140Z,66.50
2019-03-23T07:55:35.111Z,65.60
2019-03-23T07:58:19.920Z,65.60
2019-03-23T08:01:04.347Z,65.40
2019-03-23T08:03:49.004Z,64.90
2019-03-23T08:06:33.816Z,64.30
2019-03-23T08:09:20.687Z,64.10
2019-03-23T08:12:04.356Z,63.40
2019-03-23T08:14:57.895Z,63.40
2019-03-23T08:17:42.672Z,63.10
2019-03-23T08:20:27.252Z,62.70
2019-03-23T08:23:12.128Z,62.10
2019-03-23T08:25:57.154Z,61.40
2019-03-23T08:28:41.800Z,61.00
2019-03-23T08:31:26.790Z,60.70
2019-03-23T08:34:11.111Z,60.40
2019-03-23T08:36:56.015Z,59.80
2019-03-23T08:39:48.407Z,59.60
2019-03-23T08:42:26.782Z,59.00
2019-03-23T08:45:11.215Z,58.60
2019-03-23T08:48:04.764Z,58.60
2019-03-23T08:50:49.332Z,58.40
2019-03-23T08:53:33.947Z,57.80
2019-03-23T08:56:18.400Z,57.40
2019-03-23T08:59:11.463Z,56.70
2019-03-23T09:01:56.285Z,56.30
2019-03-23T09:04:40.760Z,56.30
2019-03-23T09:07:25.365Z,55.90
2019-03-23T09:10:10.048Z,54.90
2019-03-23T09:13:03.470Z,54.70
2019-03-23T09:15:48.120Z,54.00
2019-03-23T09:18:32.567Z,53.50
2019-03-23T09:21:17.520Z,52.90
2019-03-23T09:24:01.611Z,52.30
2019-03-23T09:26:55.051Z,51.80
2019-03-23T09:29:39.992Z,51.30
2019-03-23T09:32:24.140Z,50.80
2019-03-23T09:35:08.438Z,49.90
2019-03-23T09:38:02.428Z,49.20
2019-03-23T09:40:55.816Z,48.40
2019-03-23T09:43:40.804Z,48.10
2019-03-23T09:46:25.584Z,47.10
2019-03-23T09:49:10.052Z,47.30
2019-03-23T09:51:54.791Z,45.80
2019-03-23T09:54:39.183Z,45.90
2019-03-23T09:57:32.244Z,44.80
2019-03-23T10:00:16.651Z,44.20
2019-03-23T10:03:09.767Z,43.70
2019-03-23T10:05:54.484Z,43.50
2019-03-23T10:08:39.239Z,42.80
2019-03-23T10:11:23.905Z,42.30
2019-03-23T10:14:08.419Z,41.80
2019-03-23T10:17:04.139Z,41.70
2019-03-23T10:19:57.463Z,41.30
2019-03-23T10:22:41.809Z,39.50
2019-03-23T10:25:26.300Z,38.30
2019-03-23T10:28:19.873Z,37.30
2019-03-23T10:31:04.467Z,38.70
2019-03-23T10:33:48.612Z,38.30
2019-03-23T10:36:33.376Z,38.10
2019-03-23T10:39:18.100Z,37.70
2019-03-23T10:42:02.635Z,36.30
2019-03-23T10:44:56.399Z,34.90
2019-03-23T10:47:41.062Z,34.10
2019-03-23T10:50:26.008Z,33.60
2019-03-23T10:53:10.888Z,33.70
2019-03-23T10:56:04.630Z,32.80
2019-03-23T10:58:49.191Z,32.30
2019-03-23T11:01:34.023Z,32.50
2019-03-23T11:04:18.411Z,31.20
2019-03-23T11:07:03.272Z,30.00
2019-03-23T11:09:47.771Z,29.70
2019-03-23T11:12:41.581Z,29.30
2019-03-23T11:15:35.656Z,29.00
2019-03-23T11:18:29.387Z,29.40
2019-03-23T11:21:13.927Z,29.20
2019-03-23T11:23:58.437Z,29.30
2019-03-23T11:26:42.996Z,29.20
2019-03-23T11:29:36.384Z,28.80
2019-03-23T11:32:20.963Z,28.70
2019-03-23T11:35:07.957Z,28.60
2019-03-23T11:38:02.420Z,28.60
2019-03-23T11:40:57.352Z,28.20
2019-03-23T11:43:41.983Z,27.80
2019-03-23T11:46:26.508Z,27.90
2019-03-23T11:49:11.208Z,28.10
2019-03-23T11:51:55.401Z,28.20
2019-03-23T11:54:49.284Z,27.80
2019-03-23T11:57:33.729Z,28.00
2019-03-23T12:00:18.251Z,28.00
2019-03-23T12:03:02.900Z,27.80
2019-03-23T12:05:47.824Z,28.10
2019-03-23T12:08:32.452Z,27.90
2019-03-23T12:11:16.857Z,27.80
2019-03-23T12:14:10.384Z,28.00
2019-03-23T12:16:55.073Z,27.80
2019-03-23T12:19:39.717Z,27.00
2019-03-23T12:22:24.236Z,26.80
2019-03-23T12:25:08.584Z,27.20
2019-03-23T12:28:02.097Z,26.50
2019-03-23T12:30:46.852Z,26.20
2019-03-23T12:33:31.275Z,26.50
2019-03-23T12:36:15.692Z,26.40
2019-03-23T12:39:08.988Z,25.90
2019-03-23T12:41:53.609Z,25.60
2019-03-23T12:44:37.852Z,25.20
2019-03-23T12:47:23.487Z,25.30
2019-03-23T12:50:08.262Z,25.10
2019-03-23T12:52:53.004Z,25.00
2019-03-23T12:55:37.612Z,24.80
2019-03-23T12:58:22.931Z,24.60
2019-03-23T13:01:07.322Z,24.40
2019-03-23T13:03:52.279Z,24.60
2019-03-23T13:06:37.068Z,24.50
2019-03-23T13:09:22.013Z,24.70
2019-03-23T13:12:06.559Z,24.10
2019-03-23T13:14:51.336Z,23.80
2019-03-23T13:17:36.188Z,23.80
2019-03-23T13:20:21.015Z,23.60
2019-03-23T13:23:05.503Z,23.80
2019-03-23T13:25:50.365Z,23.20
2019-03-23T13:28:34.544Z,23.40
2019-03-23T13:31:27.768Z,23.30
2019-03-23T13:34:12.560Z,23.40
2019-03-23T13:36:57.283Z,23.50
2019-03-23T13:39:41.357Z,23.00
2019-03-23T13:42:35.150Z,23.30
2019-03-23T13:45:19.645Z,23.20
2019-03-23T13:48:04.184Z,23.00
2019-03-23T13:50:48.820Z,22.90
2019-03-23T13:53:43.520Z,22.80
2019-03-23T13:56:28.262Z,23.20
2019-03-23T13:59:12.714Z,23.10
2019-03-23T14:01:57.220Z,23.20
2019-03-23T14:04:42.017Z,22.80
2019-03-23T14:07:26.568Z,22.40
2019-03-23T14:10:20.004Z,22.60
2019-03-23T14:13:04.560Z,22.80
2019-03-23T14:15:49.120Z,22.80
2019-03-23T14:18:35.735Z,22.70
2019-03-23T14:21:20.020Z,22.90
2019-03-23T14:24:13.664Z,23.00
2019-03-23T14:26:58.777Z,22.60
2019-03-23T14:29:52.165Z,22.70
2019-03-23T14:32:36.997Z,22.60
2019-03-23T14:35:21.975Z,22.70
2019-03-23T14:38:06.848Z,22.60
2019-03-23T14:40:51.757Z,22.50
2019-03-23T14:43:36.265Z,22.50
2019-03-23T14:46:20.975Z,22.80
2019-03-23T14:49:06.011Z,22.70
2019-03-23T14:51:50.353Z,22.90
2019-03-23T14:54:34.940Z,23.50
2019-03-23T14:57:19.488Z,23.60
2019-03-23T15:00:12.712Z,23.70
2019-03-23T15:02:57.560Z,23.80
2019-03-23T15:05:42.343Z,23.60
2019-03-23T15:08:27.360Z,23.50
2019-03-23T15:11:11.963Z,23.40
2019-03-23T15:13:56.601Z,23.70
2019-03-23T15:16:41.440Z,23.40
2019-03-23T15:19:26.387Z,23.40
2019-03-23T15:22:11.252Z,23.60
2019-03-23T15:24:55.659Z,23.80
2019-03-23T15:27:40.580Z,24.10
2019-03-23T15:30:25.128Z,24.50
2019-03-23T15:33:09.767Z,24.70
2019-03-23T15:35:54.499Z,25.20
2019-03-23T15:38:47.914Z,25.70
2019-03-23T15:41:32.739Z,26.20
2019-03-23T15:44:17.392Z,26.60
2019-03-23T15:47:02.184Z,26.70
2019-03-23T15:49:46.226Z,27.10
2019-03-23T15:52:39.452Z,27.20
2019-03-23T15:55:24.269Z,27.20
2019-03-23T15:58:08.627Z,27.40
2019-03-23T16:00:53.324Z,27.50
2019-03-23T16:03:38.306Z,28.10
2019-03-23T16:06:22.453Z,28.50
2019-03-23T16:09:15.981Z,28.70
2019-03-23T16:12:00.604Z,28.70
2019-03-23T16:14:45.300Z,29.00
2019-03-23T16:17:29.949Z,29.20
2019-03-23T16:20:14.493Z,29.30
2019-03-23T16:23:07.933Z,29.40
2019-03-23T16:25:53.468Z,29.50
2019-03-23T16:28:46.817Z,29.70
2019-03-23T16:31:31.796Z,29.80
2019-03-23T16:34:16.500Z,30.00
2019-03-23T16:37:00.651Z,30.10
2019-03-23T16:39:45.151Z,30.20
2019-03-23T16:42:45.317Z,30.10
2019-03-23T16:45:24.916Z,30.10
2019-03-23T16:48:09.219Z,30.40
2019-03-23T16:50:53.840Z,30.30
2019-03-23T16:53:38.479Z,30.70
2019-03-23T16:56:32.280Z,30.60
2019-03-23T16:59:25.935Z,30.50
2019-03-23T17:02:10.812Z,31.10
2019-03-23T17:04:55.391Z,31.20
2019-03-23T17:07:40.029Z,31.40
2019-03-23T17:10:24.671Z,31.70
2019-03-23T17:13:09.568Z,31.90
2019-03-23T17:15:54.412Z,32.20
2019-03-23T17:18:38.795Z,32.60
2019-03-23T17:21:32.061Z,32.90
2019-03-23T17:24:16.696Z,33.30
2019-03-23T17:27:01.865Z,33.50
2019-03-23T17:29:46.573Z,33.70
2019-03-23T17:32:30.884Z,33.80
2019-03-23T17:35:15.852Z,34.00
2019-03-23T17:38:00.888Z,34.40
2019-03-23T17:40:46.308Z,34.70
2019-03-23T17:43:40.935Z,34.80
2019-03-23T17:46:27.728Z,35.20
2019-03-23T17:49:11.919Z,35.70
2019-03-23T17:52:05.560Z,35.60
2019-03-23T17:55:00.752Z,35.60
2019-03-23T17:57:46.444Z,36.10
2019-03-23T18:00:39.856Z,36.80
2019-03-23T18:03:24.221Z,37.60
2019-03-23T18:06:08.648Z,38.00
2019-03-23T18:09:01.895Z,38.50
2019-03-23T18:11:48.192Z,39.60
2019-03-23T18:14:32.716Z,40.20
2019-03-23T18:17:17.550Z,40.90
2019-03-23T18:20:02.011Z,41.40
2019-03-23T18:22:46.561Z,41.60
2019-03-23T18:25:40.068Z,42.50
2019-03-23T18:28:24.791Z,43.00
2019-03-23T18:31:09.304Z,43.60
2019-03-23T18:33:53.992Z,44.30
2019-03-23T18:36:38.549Z,44.70
2019-03-23T18:39:23.416Z,44.70
2019-03-23T18:42:08.397Z,44.60
2019-03-23T18:44:53.092Z,44.00
2019-03-23T18:47:37.829Z,43.70
2019-03-23T18:50:22.412Z,43.70
2019-03-23T18:53:15.448Z,43.70
2019-03-23T18:56:00.552Z,44.50
2019-03-23T18:58:44.871Z,45.40
2019-03-23T19:01:29.304Z,46.20
2019-03-23T19:04:22.744Z,46.60
2019-03-23T19:07:07.212Z,47.20
2019-03-23T19:09:51.999Z,47.60
2019-03-23T19:12:36.532Z,47.80
2019-03-23T19:15:20.699Z,48.10
2019-03-23T19:18:14.153Z,48.40
2019-03-23T19:20:58.860Z,48.90
2019-03-23T19:23:43.213Z,49.40
2019-03-23T19:26:36.549Z,49.90
2019-03-23T19:29:21.009Z,50.70
2019-03-23T19:32:05.549Z,51.30
2019-03-23T19:34:50.264Z,51.70
2019-03-23T19:37:34.824Z,52.00
2019-03-23T19:40:27.976Z,52.30
2019-03-23T19:43:12.456Z,52.70
2019-03-23T19:45:56.953Z,53.00
2019-03-23T19:48:50.628Z,53.20
2019-03-23T19:51:36.372Z,53.10
2019-03-23T19:54:21.036Z,53.40
2019-03-23T19:57:05.472Z,53.50
2019-03-23T19:59:58.544Z,54.20
2019-03-23T20:02:43.381Z,54.30
2019-03-23T20:05:28.167Z,54.70
2019-03-23T20:08:12.593Z,54.80
2019-03-23T20:10:57.445Z,55.10
2019-03-23T20:13:42.052Z,55.10
2019-03-23T20:16:35.640Z,55.40
2019-03-23T20:19:20.244Z,55.70
2019-03-23T20:22:05.047Z,56.00
2019-03-23T20:24:49.936Z,56.40
2019-03-23T20:27:34.589Z,56.50
2019-03-23T20:30:19.080Z,56.70
2019-03-23T20:33:04.093Z,56.90
2019-03-23T20:35:48.591Z,56.90
2019-03-23T20:38:33.197Z,57.00
2019-03-23T20:41:17.960Z,57.30
2019-03-23T20:44:09.359Z,57.50
2019-03-23T20:46:57.620Z,57.80
2019-03-23T20:49:42.207Z,57.90
2019-03-23T20:52:27.217Z,58.10
2019-03-23T20:55:12.121Z,58.50
2019-03-23T20:57:57.173Z,58.80
2019-03-23T21:00:51.147Z,58.70
2019-03-23T21:03:35.832Z,58.80
2019-03-23T21:06:20.233Z,59.00
2019-03-23T21:09:04.828Z,59.20
2019-03-23T21:11:50.778Z,59.40
2019-03-23T21:14:44.183Z,59.70
2019-03-23T21:17:28.971Z,59.90
2019-03-23T21:20:15.048Z,60.10
2019-03-23T21:23:00.024Z,60.80
2019-03-23T21:25:44.883Z,60.90
2019-03-23T21:28:29.823Z,61.60
2019-03-23T21:31:15.092Z,62.10
2019-03-23T21:34:08.489Z,62.40
2019-03-23T21:36:53.196Z,62.50
2019-03-23T21:39:37.727Z,62.80
2019-03-23T21:42:22.335Z,63.20
2019-03-23T21:45:15.676Z,62.80
2019-03-23T21:48:00.176Z,62.80
2019-03-23T21:50:47.639Z,63.50
2019-03-23T21:53:31.128Z,63.50
2019-03-23T21:56:25.092Z,64.00
2019-03-23T21:59:18.776Z,64.20
2019-03-23T22:02:03.409Z,66.50
2019-03-23T22:04:47.879Z,65.60
2019-03-23T22:07:32.645Z,65.40
2019-03-23T22:10:17.343Z,65.60
2019-03-23T22:13:02.028Z,65.60
2019-03-23T22:15:46.976Z,66.00
2019-03-23T22:18:31.523Z,66.00
2019-03-23T22:21:16.158Z,66.30
2019-03-23T22:24:09.274Z,66.40
2019-03-23T22:26:53.756Z,66.70
2019-03-23T22:29:38.636Z,66.60
2019-03-23T22:32:23.072Z,67.20
2019-03-23T22:35:16.324Z,66.80
2019-03-23T22:38:00.815Z,67.00
2019-03-23T22:40:45.376Z,66.90
2019-03-23T22:43:29.912Z,67.00
2019-03-23T22:46:23.292Z,67.50
2019-03-23T22:49:07.535Z,68.60
2019-03-23T22:51:52.111Z,68.30
2019-03-23T22:54:47.545Z,68.70
2019-03-23T22:57:32.407Z,69.00
2019-03-23T23:00:19.523Z,69.50
2019-03-23T23:03:22.709Z,70.10
2019-03-23T23:06:16.099Z,70.10
2019-03-23T23:09:00.351Z,70.10
2019-03-23T23:11:53.752Z,70.20
2019-03-23T23:14:38.431Z,70.60
2019-03-23T23:17:23.151Z,71.00
2019-03-23T23:20:07.600Z,72.60
2019-03-23T23:22:51.807Z,73.00
2019-03-23T23:25:37.237Z,73.10
2019-03-23T23:28:21.896Z,73.60
2019-03-23T23:31:06.962Z,73.70
2019-03-23T23:33:52.129Z,74.10
2019-03-23T23:36:36.991Z,74.50
2019-03-23T23:39:21.112Z,74.90
2019-03-23T23:42:05.992Z,75.40
2019-03-23T23:44:50.516Z,75.30
2019-03-23T23:47:43.583Z,75.60
2019-03-23T23:50:27.879Z,76.00
2019-03-23T23:53:20.972Z,76.30
2019-03-23T23:56:05.378Z,76.90
2019-03-23T23:58:49.795Z,77.40
